sensor_id;sensor_type;location;lat;lon;timestamp;temperature;humidity
39067;DHT22;24821;51.988;6.020;2024-01-27T00:01:32;4.40;99.90
39067;DHT22;24821;51.988;6.020;2024-01-27T00:03:57;4.40;99.90
39067;DHT22;24821;51.988;6.020;2024-01-27T00:06:23;4.40;99.90
39067;DHT22;24821;51.988;6.020;2024-01-27T00:08:48;4.40;99.90
39067;DHT22;24821;51.988;6.020;2024-01-27T00:11:14;4.40;99.90
39067;DHT22;24821;51.988;6.020;2024-01-27T00:13:39;4.40;99.90
39067;DHT22;24821;51.988;6.020;2024-01-27T00:16:05;4.40;99.90
39067;DHT22;24821;51.988;6.020;2024-01-27T00:18:31;4.40;99.90
39067;DHT22;24821;51.988;6.020;2024-01-27T00:20:56;4.40;99.90
39067;DHT22;24821;51.988;6.020;2024-01-27T00:23:21;4.40;99.90
39067;DHT22;24821;51.988;6.020;2024-01-27T00:25:47;4.30;99.90
39067;DHT22;24821;51.988;6.020;2024-01-27T00:28:12;4.30;99.90
39067;DHT22;24821;51.988;6.020;2024-01-27T00:30:38;4.30;99.90
39067;DHT22;24821;51.988;6.020;2024-01-27T00:33:03;4.30;99.90
39067;DHT22;24821;51.988;6.020;2024-01-27T00:35:29;4.30;99.90
39067;DHT22;24821;51.988;6.020;2024-01-27T00:37:54;4.30;99.90
39067;DHT22;24821;51.988;6.020;2024-01-27T00:40:20;4.30;99.90
39067;DHT22;24821;51.988;6.020;2024-01-27T00:42:45;4.30;99.90
39067;DHT22;24821;51.988;6.020;2024-01-27T00:45:11;4.30;99.90
39067;DHT22;24821;51.988;6.020;2024-01-27T00:47:36;4.20;99.90
39067;DHT22;24821;51.988;6.020;2024-01-27T00:50:02;4.20;99.90
39067;DHT22;24821;51.988;6.020;2024-01-27T00:52:27;4.20;99.90
39067;DHT22;24821;51.988;6.020;2024-01-27T00:54:52;4.20;99.90
39067;DHT22;24821;51.988;6.020;2024-01-27T00:57:18;4.20;99.90
39067;DHT22;24821;51.988;6.020;2024-01-27T00:59:43;4.10;99.90
39067;DHT22;24821;51.988;6.020;2024-01-27T01:02:09;4.10;99.90
39067;DHT22;24821;51.988;6.020;2024-01-27T01:04:34;4.10;99.90
39067;DHT22;24821;51.988;6.020;2024-01-27T01:07:00;4.00;99.90
39067;DHT22;24821;51.988;6.020;2024-01-27T01:09:25;4.00;99.90
39067;DHT22;24821;51.988;6.020;2024-01-27T01:11:51;4.00;99.90
39067;DHT22;24821;51.988;6.020;2024-01-27T01:14:16;4.00;99.90
39067;DHT22;24821;51.988;6.020;2024-01-27T01:16:42;3.90;99.90
39067;DHT22;24821;51.988;6.020;2024-01-27T01:19:07;3.90;99.90
39067;DHT22;24821;51.988;6.020;2024-01-27T01:21:32;3.90;99.90
39067;DHT22;24821;51.988;6.020;2024-01-27T01:23:58;3.90;99.90
39067;DHT22;24821;51.988;6.020;2024-01-27T01:26:24;3.90;99.90
39067;DHT22;24821;51.988;6.020;2024-01-27T01:28:49;3.80;99.90
39067;DHT22;24821;51.988;6.020;2024-01-27T01:31:15;3.80;99.90
39067;DHT22;24821;51.988;6.020;2024-01-27T01:33:40;3.80;99.90
39067;DHT22;24821;51.988;6.020;2024-01-27T01:36:06;3.70;99.90
39067;DHT22;24821;51.988;6.020;2024-01-27T01:38:31;3.70;99.90
39067;DHT22;24821;51.988;6.020;2024-01-27T01:40:57;3.70;99.90
39067;DHT22;24821;51.988;6.020;2024-01-27T01:43:22;3.70;99.90
39067;DHT22;24821;51.988;6.020;2024-01-27T01:45:48;3.70;99.90
39067;DHT22;24821;51.988;6.020;2024-01-27T01:48:15;3.60;99.90
39067;DHT22;24821;51.988;6.020;2024-01-27T01:50:41;3.60;99.90
39067;DHT22;24821;51.988;6.020;2024-01-27T01:53:07;3.60;99.90
39067;DHT22;24821;51.988;6.020;2024-01-27T01:55:33;3.60;99.90
39067;DHT22;24821;51.988;6.020;2024-01-27T01:57:59;3.50;99.90
39067;DHT22;24821;51.988;6.020;2024-01-27T02:00:24;3.50;99.90
39067;DHT22;24821;51.988;6.020;2024-01-27T02:02:50;3.50;99.90
39067;DHT22;24821;51.988;6.020;2024-01-27T02:05:15;3.50;99.90
39067;DHT22;24821;51.988;6.020;2024-01-27T02:07:41;3.40;99.90
39067;DHT22;24821;51.988;6.020;2024-01-27T02:10:15;3.40;99.90
39067;DHT22;24821;51.988;6.020;2024-01-27T02:12:42;3.40;99.90
39067;DHT22;24821;51.988;6.020;2024-01-27T02:15:14;3.40;99.90
39067;DHT22;24821;51.988;6.020;2024-01-27T02:17:39;3.30;99.90
39067;DHT22;24821;51.988;6.020;2024-01-27T02:20:06;3.30;99.90
39067;DHT22;24821;51.988;6.020;2024-01-27T02:22:32;3.30;99.90
39067;DHT22;24821;51.988;6.020;2024-01-27T02:24:58;3.30;99.90
39067;DHT22;24821;51.988;6.020;2024-01-27T02:27:23;3.30;99.90
39067;DHT22;24821;51.988;6.020;2024-01-27T02:29:49;3.20;99.90
39067;DHT22;24821;51.988;6.020;2024-01-27T02:32:14;3.30;99.90
39067;DHT22;24821;51.988;6.020;2024-01-27T02:34:40;3.20;99.90
39067;DHT22;24821;51.988;6.020;2024-01-27T02:37:05;3.20;99.90
39067;DHT22;24821;51.988;6.020;2024-01-27T02:39:31;3.20;99.90
39067;DHT22;24821;51.988;6.020;2024-01-27T02:41:56;3.20;99.90
39067;DHT22;24821;51.988;6.020;2024-01-27T02:44:22;3.10;99.90
39067;DHT22;24821;51.988;6.020;2024-01-27T02:46:47;3.10;99.90
39067;DHT22;24821;51.988;6.020;2024-01-27T02:49:12;3.10;99.90
39067;DHT22;24821;51.988;6.020;2024-01-27T02:51:38;3.00;99.90
39067;DHT22;24821;51.988;6.020;2024-01-27T02:54:03;3.00;99.90
39067;DHT22;24821;51.988;6.020;2024-01-27T02:56:29;3.00;99.90
39067;DHT22;24821;51.988;6.020;2024-01-27T02:58:54;3.00;99.90
39067;DHT22;24821;51.988;6.020;2024-01-27T03:01:20;2.90;99.90
39067;DHT22;24821;51.988;6.020;2024-01-27T03:03:45;2.90;99.90
39067;DHT22;24821;51.988;6.020;2024-01-27T03:06:11;2.90;99.90
39067;DHT22;24821;51.988;6.020;2024-01-27T03:08:36;2.90;99.90
39067;DHT22;24821;51.988;6.020;2024-01-27T03:11:02;2.90;99.90
39067;DHT22;24821;51.988;6.020;2024-01-27T03:13:27;2.90;99.90
39067;DHT22;24821;51.988;6.020;2024-01-27T03:15:53;2.90;99.90
39067;DHT22;24821;51.988;6.020;2024-01-27T03:18:18;2.90;99.90
39067;DHT22;24821;51.988;6.020;2024-01-27T03:20:44;2.90;99.90
39067;DHT22;24821;51.988;6.020;2024-01-27T03:23:09;2.80;99.90
39067;DHT22;24821;51.988;6.020;2024-01-27T03:25:35;2.80;99.90
39067;DHT22;24821;51.988;6.020;2024-01-27T03:28:00;2.80;99.90
39067;DHT22;24821;51.988;6.020;2024-01-27T03:30:27;2.90;99.90
39067;DHT22;24821;51.988;6.020;2024-01-27T03:32:52;2.80;99.90
39067;DHT22;24821;51.988;6.020;2024-01-27T03:35:18;2.80;99.90
39067;DHT22;24821;51.988;6.020;2024-01-27T03:37:43;2.80;99.90
39067;DHT22;24821;51.988;6.020;2024-01-27T03:40:09;2.80;99.90
39067;DHT22;24821;51.988;6.020;2024-01-27T03:42:35;2.80;99.90
39067;DHT22;24821;51.988;6.020;2024-01-27T03:45:00;2.80;99.90
39067;DHT22;24821;51.988;6.020;2024-01-27T03:47:26;2.80;99.90
39067;DHT22;24821;51.988;6.020;2024-01-27T03:49:51;2.80;99.90
39067;DHT22;24821;51.988;6.020;2024-01-27T03:52:17;2.80;99.90
39067;DHT22;24821;51.988;6.020;2024-01-27T03:54:42;2.80;99.90
39067;DHT22;24821;51.988;6.020;2024-01-27T03:57:08;2.80;99.90
39067;DHT22;24821;51.988;6.020;2024-01-27T03:59:33;2.80;99.90
39067;DHT22;24821;51.988;6.020;2024-01-27T04:01:59;2.80;99.90
39067;DHT22;24821;51.988;6.020;2024-01-27T04:04:24;2.90;99.90
39067;DHT22;24821;51.988;6.020;2024-01-27T04:06:50;2.80;99.90
39067;DHT22;24821;51.988;6.020;2024-01-27T04:09:15;2.90;99.90
39067;DHT22;24821;51.988;6.020;2024-01-27T04:11:41;2.90;99.90
39067;DHT22;24821;51.988;6.020;2024-01-27T04:14:06;2.90;99.90
39067;DHT22;24821;51.988;6.020;2024-01-27T04:16:32;2.90;99.90
39067;DHT22;24821;51.988;6.020;2024-01-27T04:18:58;2.90;99.90
39067;DHT22;24821;51.988;6.020;2024-01-27T04:21:23;2.90;99.90
39067;DHT22;24821;51.988;6.020;2024-01-27T04:23:48;2.90;99.90
39067;DHT22;24821;51.988;6.020;2024-01-27T04:26:14;2.90;99.90
39067;DHT22;24821;51.988;6.020;2024-01-27T04:28:39;2.90;99.90
39067;DHT22;24821;51.988;6.020;2024-01-27T04:31:05;2.90;99.90
39067;DHT22;24821;51.988;6.020;2024-01-27T04:33:31;2.80;99.90
39067;DHT22;24821;51.988;6.020;2024-01-27T04:35:57;2.90;99.90
39067;DHT22;24821;51.988;6.020;2024-01-27T04:38:22;2.80;99.90
39067;DHT22;24821;51.988;6.020;2024-01-27T04:40:48;2.90;99.90
39067;DHT22;24821;51.988;6.020;2024-01-27T04:43:17;2.80;99.90
39067;DHT22;24821;51.988;6.020;2024-01-27T04:45:43;2.80;99.90
39067;DHT22;24821;51.988;6.020;2024-01-27T04:48:09;2.80;99.90
39067;DHT22;24821;51.988;6.020;2024-01-27T04:50:34;2.80;99.90
39067;DHT22;24821;51.988;6.020;2024-01-27T04:53:00;2.80;99.90
39067;DHT22;24821;51.988;6.020;2024-01-27T04:55:26;2.80;99.90
39067;DHT22;24821;51.988;6.020;2024-01-27T04:57:51;2.70;99.90
39067;DHT22;24821;51.988;6.020;2024-01-27T05:00:17;2.70;99.90
39067;DHT22;24821;51.988;6.020;2024-01-27T05:02:42;2.80;99.90
39067;DHT22;24821;51.988;6.020;2024-01-27T05:05:08;2.80;99.90
39067;DHT22;24821;51.988;6.020;2024-01-27T05:07:33;2.70;99.90
39067;DHT22;24821;51.988;6.020;2024-01-27T05:09:59;2.70;99.90
39067;DHT22;24821;51.988;6.020;2024-01-27T05:12:25;2.70;99.90
39067;DHT22;24821;51.988;6.020;2024-01-27T05:14:50;2.80;99.90
39067;DHT22;24821;51.988;6.020;2024-01-27T05:17:16;2.80;99.90
39067;DHT22;24821;51.988;6.020;2024-01-27T05:19:41;2.80;99.90
39067;DHT22;24821;51.988;6.020;2024-01-27T05:22:07;2.70;99.90
39067;DHT22;24821;51.988;6.020;2024-01-27T05:24:32;2.80;99.90
39067;DHT22;24821;51.988;6.020;2024-01-27T05:26:58;2.70;99.90
39067;DHT22;24821;51.988;6.020;2024-01-27T05:29:24;2.70;99.90
39067;DHT22;24821;51.988;6.020;2024-01-27T05:31:49;2.70;99.90
39067;DHT22;24821;51.988;6.020;2024-01-27T05:34:15;2.70;99.90
39067;DHT22;24821;51.988;6.020;2024-01-27T05:36:40;2.70;99.90
39067;DHT22;24821;51.988;6.020;2024-01-27T05:39:06;2.70;99.90
39067;DHT22;24821;51.988;6.020;2024-01-27T05:41:32;2.70;99.90
39067;DHT22;24821;51.988;6.020;2024-01-27T05:43:57;2.60;99.90
39067;DHT22;24821;51.988;6.020;2024-01-27T05:46:26;2.70;99.90
39067;DHT22;24821;51.988;6.020;2024-01-27T05:48:52;2.70;99.90
39067;DHT22;24821;51.988;6.020;2024-01-27T05:51:22;2.60;99.90
39067;DHT22;24821;51.988;6.020;2024-01-27T05:53:50;2.70;99.90
39067;DHT22;24821;51.988;6.020;2024-01-27T05:56:16;2.60;99.90
39067;DHT22;24821;51.988;6.020;2024-01-27T05:58:44;2.60;99.90
39067;DHT22;24821;51.988;6.020;2024-01-27T06:01:10;2.60;99.90
39067;DHT22;24821;51.988;6.020;2024-01-27T06:03:35;2.60;99.90
39067;DHT22;24821;51.988;6.020;2024-01-27T06:06:01;2.60;99.90
39067;DHT22;24821;51.988;6.020;2024-01-27T06:08:26;2.60;99.90
39067;DHT22;24821;51.988;6.020;2024-01-27T06:10:52;2.60;99.90
39067;DHT22;24821;51.988;6.020;2024-01-27T06:13:17;2.60;99.90
39067;DHT22;24821;51.988;6.020;2024-01-27T06:15:43;2.60;99.90
39067;DHT22;24821;51.988;6.020;2024-01-27T06:18:08;2.60;99.90
39067;DHT22;24821;51.988;6.020;2024-01-27T06:20:34;2.60;99.90
39067;DHT22;24821;51.988;6.020;2024-01-27T06:22:59;2.60;99.90
39067;DHT22;24821;51.988;6.020;2024-01-27T06:25:25;2.60;99.90
39067;DHT22;24821;51.988;6.020;2024-01-27T06:27:50;2.60;99.90
39067;DHT22;24821;51.988;6.020;2024-01-27T06:30:16;2.60;99.90
39067;DHT22;24821;51.988;6.020;2024-01-27T06:32:41;2.50;99.90
39067;DHT22;24821;51.988;6.020;2024-01-27T06:35:07;2.50;99.90
39067;DHT22;24821;51.988;6.020;2024-01-27T06:37:32;2.60;99.90
39067;DHT22;24821;51.988;6.020;2024-01-27T06:39:58;2.60;99.90
39067;DHT22;24821;51.988;6.020;2024-01-27T06:42:23;2.60;99.90
39067;DHT22;24821;51.988;6.020;2024-01-27T06:44:49;2.50;99.90
39067;DHT22;24821;51.988;6.020;2024-01-27T06:47:16;2.50;99.90
39067;DHT22;24821;51.988;6.020;2024-01-27T06:49:41;2.50;99.90
39067;DHT22;24821;51.988;6.020;2024-01-27T06:52:07;2.50;99.90
39067;DHT22;24821;51.988;6.020;2024-01-27T06:54:32;2.50;99.90
39067;DHT22;24821;51.988;6.020;2024-01-27T06:57:01;2.50;99.90
39067;DHT22;24821;51.988;6.020;2024-01-27T06:59:26;2.60;99.90
39067;DHT22;24821;51.988;6.020;2024-01-27T07:01:52;2.60;99.90
39067;DHT22;24821;51.988;6.020;2024-01-27T07:04:17;2.60;99.90
39067;DHT22;24821;51.988;6.020;2024-01-27T07:06:43;2.60;99.90
39067;DHT22;24821;51.988;6.020;2024-01-27T07:09:09;2.50;99.90
39067;DHT22;24821;51.988;6.020;2024-01-27T07:11:35;2.50;99.90
39067;DHT22;24821;51.988;6.020;2024-01-27T07:14:01;2.50;99.90
39067;DHT22;24821;51.988;6.020;2024-01-27T07:16:26;2.50;99.90
39067;DHT22;24821;51.988;6.020;2024-01-27T07:18:51;2.50;99.90
39067;DHT22;24821;51.988;6.020;2024-01-27T07:21:17;2.50;99.90
39067;DHT22;24821;51.988;6.020;2024-01-27T07:23:43;2.50;99.90
39067;DHT22;24821;51.988;6.020;2024-01-27T07:26:11;2.50;99.90
39067;DHT22;24821;51.988;6.020;2024-01-27T07:28:37;2.50;99.90
39067;DHT22;24821;51.988;6.020;2024-01-27T07:31:03;2.50;99.90
39067;DHT22;24821;51.988;6.020;2024-01-27T07:33:29;2.50;99.90
39067;DHT22;24821;51.988;6.020;2024-01-27T07:35:54;2.50;99.90
39067;DHT22;24821;51.988;6.020;2024-01-27T07:38:20;2.50;99.90
39067;DHT22;24821;51.988;6.020;2024-01-27T07:40:45;2.50;99.90
39067;DHT22;24821;51.988;6.020;2024-01-27T07:43:10;2.50;99.90
39067;DHT22;24821;51.988;6.020;2024-01-27T07:45:36;2.50;99.90
39067;DHT22;24821;51.988;6.020;2024-01-27T07:48:01;2.50;99.90
39067;DHT22;24821;51.988;6.020;2024-01-27T07:50:27;2.50;99.90
39067;DHT22;24821;51.988;6.020;2024-01-27T07:52:52;2.50;99.90
39067;DHT22;24821;51.988;6.020;2024-01-27T07:55:18;2.50;99.90
39067;DHT22;24821;51.988;6.020;2024-01-27T07:57:44;2.50;99.90
39067;DHT22;24821;51.988;6.020;2024-01-27T08:00:09;2.50;99.90
39067;DHT22;24821;51.988;6.020;2024-01-27T08:02:35;2.50;99.90
39067;DHT22;24821;51.988;6.020;2024-01-27T08:05:02;2.60;99.90
39067;DHT22;24821;51.988;6.020;2024-01-27T08:07:29;2.60;99.90
39067;DHT22;24821;51.988;6.020;2024-01-27T08:09:54;2.60;99.90
39067;DHT22;24821;51.988;6.020;2024-01-27T08:12:20;2.60;99.90
39067;DHT22;24821;51.988;6.020;2024-01-27T08:14:45;2.60;99.90
39067;DHT22;24821;51.988;6.020;2024-01-27T08:17:10;2.60;99.90
39067;DHT22;24821;51.988;6.020;2024-01-27T08:19:36;2.60;99.90
39067;DHT22;24821;51.988;6.020;2024-01-27T08:22:02;2.60;99.90
39067;DHT22;24821;51.988;6.020;2024-01-27T08:24:28;2.60;99.90
39067;DHT22;24821;51.988;6.020;2024-01-27T08:26:54;2.60;99.90
39067;DHT22;24821;51.988;6.020;2024-01-27T08:29:19;2.70;99.90
39067;DHT22;24821;51.988;6.020;2024-01-27T08:31:45;2.80;99.90
39067;DHT22;24821;51.988;6.020;2024-01-27T08:34:10;2.80;99.90
39067;DHT22;24821;51.988;6.020;2024-01-27T08:36:37;2.80;99.90
39067;DHT22;24821;51.988;6.020;2024-01-27T08:39:03;2.90;99.90
39067;DHT22;24821;51.988;6.020;2024-01-27T08:41:29;2.90;99.90
39067;DHT22;24821;51.988;6.020;2024-01-27T08:43:55;3.00;99.90
39067;DHT22;24821;51.988;6.020;2024-01-27T08:46:20;3.00;99.90
39067;DHT22;24821;51.988;6.020;2024-01-27T08:48:47;3.10;99.90
39067;DHT22;24821;51.988;6.020;2024-01-27T08:51:13;3.20;99.90
39067;DHT22;24821;51.988;6.020;2024-01-27T08:53:38;3.30;99.90
39067;DHT22;24821;51.988;6.020;2024-01-27T08:56:04;3.30;99.90
39067;DHT22;24821;51.988;6.020;2024-01-27T08:58:30;3.40;99.90
39067;DHT22;24821;51.988;6.020;2024-01-27T09:00:56;3.50;99.90
39067;DHT22;24821;51.988;6.020;2024-01-27T09:03:21;3.50;99.90
39067;DHT22;24821;51.988;6.020;2024-01-27T09:05:47;3.50;99.90
39067;DHT22;24821;51.988;6.020;2024-01-27T09:08:12;3.60;99.90
39067;DHT22;24821;51.988;6.020;2024-01-27T09:10:38;3.60;99.90
39067;DHT22;24821;51.988;6.020;2024-01-27T09:13:04;3.70;99.90
39067;DHT22;24821;51.988;6.020;2024-01-27T09:15:30;3.70;99.90
39067;DHT22;24821;51.988;6.020;2024-01-27T09:17:55;3.80;99.90
39067;DHT22;24821;51.988;6.020;2024-01-27T09:20:21;3.80;99.90
39067;DHT22;24821;51.988;6.020;2024-01-27T09:22:47;3.90;99.90
39067;DHT22;24821;51.988;6.020;2024-01-27T09:25:13;3.90;99.90
39067;DHT22;24821;51.988;6.020;2024-01-27T09:27:39;4.00;99.90
39067;DHT22;24821;51.988;6.020;2024-01-27T09:30:04;4.00;99.90
39067;DHT22;24821;51.988;6.020;2024-01-27T09:32:30;4.10;99.90
39067;DHT22;24821;51.988;6.020;2024-01-27T09:34:56;4.20;99.90
39067;DHT22;24821;51.988;6.020;2024-01-27T09:37:21;4.20;99.90
39067;DHT22;24821;51.988;6.020;2024-01-27T09:39:46;4.20;99.90
39067;DHT22;24821;51.988;6.020;2024-01-27T09:42:13;4.30;99.90
39067;DHT22;24821;51.988;6.020;2024-01-27T09:44:39;4.20;99.90
39067;DHT22;24821;51.988;6.020;2024-01-27T09:47:06;4.20;99.90
39067;DHT22;24821;51.988;6.020;2024-01-27T09:49:32;4.20;99.90
39067;DHT22;24821;51.988;6.020;2024-01-27T09:51:59;4.30;99.90
39067;DHT22;24821;51.988;6.020;2024-01-27T09:54:24;4.30;99.90
39067;DHT22;24821;51.988;6.020;2024-01-27T09:56:50;4.30;99.90
39067;DHT22;24821;51.988;6.020;2024-01-27T09:59:16;4.40;99.90
39067;DHT22;24821;51.988;6.020;2024-01-27T10:01:43;4.40;99.90
39067;DHT22;24821;51.988;6.020;2024-01-27T10:04:09;4.50;99.90
39067;DHT22;24821;51.988;6.020;2024-01-27T10:06:34;4.60;99.90
39067;DHT22;24821;51.988;6.020;2024-01-27T10:09:00;4.70;99.90
39067;DHT22;24821;51.988;6.020;2024-01-27T10:11:25;4.70;99.90
39067;DHT22;24821;51.988;6.020;2024-01-27T10:13:55;4.80;99.90
39067;DHT22;24821;51.988;6.020;2024-01-27T10:16:21;4.90;99.90
39067;DHT22;24821;51.988;6.020;2024-01-27T10:18:47;4.90;99.90
39067;DHT22;24821;51.988;6.020;2024-01-27T10:21:13;5.00;99.90
39067;DHT22;24821;51.988;6.020;2024-01-27T10:23:39;5.00;99.90
39067;DHT22;24821;51.988;6.020;2024-01-27T10:26:04;5.00;99.90
39067;DHT22;24821;51.988;6.020;2024-01-27T10:28:30;5.10;99.90
39067;DHT22;24821;51.988;6.020;2024-01-27T10:31:07;5.10;99.90
39067;DHT22;24821;51.988;6.020;2024-01-27T10:33:32;5.20;99.90
39067;DHT22;24821;51.988;6.020;2024-01-27T10:35:58;5.30;99.90
39067;DHT22;24821;51.988;6.020;2024-01-27T10:38:32;5.30;99.90
39067;DHT22;24821;51.988;6.020;2024-01-27T10:40:58;5.40;99.90
39067;DHT22;24821;51.988;6.020;2024-01-27T10:43:24;5.50;99.90
39067;DHT22;24821;51.988;6.020;2024-01-27T10:45:50;5.50;99.90
39067;DHT22;24821;51.988;6.020;2024-01-27T10:48:15;5.60;99.90
39067;DHT22;24821;51.988;6.020;2024-01-27T10:50:41;5.60;99.90
39067;DHT22;24821;51.988;6.020;2024-01-27T10:53:12;5.70;99.90
39067;DHT22;24821;51.988;6.020;2024-01-27T10:55:43;5.80;99.90
39067;DHT22;24821;51.988;6.020;2024-01-27T10:58:09;5.90;99.90
39067;DHT22;24821;51.988;6.020;2024-01-27T11:00:36;5.90;99.90
39067;DHT22;24821;51.988;6.020;2024-01-27T11:03:02;6.00;99.90
39067;DHT22;24821;51.988;6.020;2024-01-27T11:05:28;6.00;99.90
39067;DHT22;24821;51.988;6.020;2024-01-27T11:07:59;6.10;99.90
39067;DHT22;24821;51.988;6.020;2024-01-27T11:10:25;6.20;99.90
39067;DHT22;24821;51.988;6.020;2024-01-27T11:12:52;6.20;99.90
39067;DHT22;24821;51.988;6.020;2024-01-27T11:15:20;6.20;99.90
39067;DHT22;24821;51.988;6.020;2024-01-27T11:17:45;6.30;99.90
39067;DHT22;24821;51.988;6.020;2024-01-27T11:20:12;6.30;99.90
39067;DHT22;24821;51.988;6.020;2024-01-27T11:22:38;6.40;99.90
39067;DHT22;24821;51.988;6.020;2024-01-27T11:27:30;6.50;99.90
39067;DHT22;24821;51.988;6.020;2024-01-27T11:29:55;6.50;99.90
39067;DHT22;24821;51.988;6.020;2024-01-27T11:32:21;6.60;99.90
39067;DHT22;24821;51.988;6.020;2024-01-27T11:34:46;6.60;99.90
39067;DHT22;24821;51.988;6.020;2024-01-27T11:37:16;6.70;99.90
39067;DHT22;24821;51.988;6.020;2024-01-27T11:39:42;6.70;99.90
39067;DHT22;24821;51.988;6.020;2024-01-27T11:42:08;6.80;99.90
39067;DHT22;24821;51.988;6.020;2024-01-27T11:44:37;6.80;99.90
39067;DHT22;24821;51.988;6.020;2024-01-27T11:47:03;6.90;99.90
39067;DHT22;24821;51.988;6.020;2024-01-27T11:49:29;6.90;99.90
39067;DHT22;24821;51.988;6.020;2024-01-27T11:51:54;6.90;99.90
39067;DHT22;24821;51.988;6.020;2024-01-27T11:54:20;6.90;99.90
39067;DHT22;24821;51.988;6.020;2024-01-27T11:56:45;7.00;99.90
39067;DHT22;24821;51.988;6.020;2024-01-27T11:59:11;7.00;99.90
39067;DHT22;24821;51.988;6.020;2024-01-27T12:01:37;7.00;99.90
39067;DHT22;24821;51.988;6.020;2024-01-27T12:04:03;7.10;99.90
39067;DHT22;24821;51.988;6.020;2024-01-27T12:06:29;7.20;99.90
39067;DHT22;24821;51.988;6.020;2024-01-27T12:08:55;7.20;99.90
39067;DHT22;24821;51.988;6.020;2024-01-27T12:11:25;7.20;99.90
39067;DHT22;24821;51.988;6.020;2024-01-27T12:13:51;7.30;99.90
39067;DHT22;24821;51.988;6.020;2024-01-27T12:16:17;7.30;99.90
39067;DHT22;24821;51.988;6.020;2024-01-27T12:18:43;7.40;99.90
39067;DHT22;24821;51.988;6.020;2024-01-27T12:21:09;7.40;99.90
39067;DHT22;24821;51.988;6.020;2024-01-27T12:23:34;7.40;99.90
39067;DHT22;24821;51.988;6.020;2024-01-27T12:26:00;7.40;99.90
39067;DHT22;24821;51.988;6.020;2024-01-27T12:28:26;7.50;99.90
39067;DHT22;24821;51.988;6.020;2024-01-27T12:30:52;7.50;99.90
39067;DHT22;24821;51.988;6.020;2024-01-27T12:33:18;7.50;99.90
39067;DHT22;24821;51.988;6.020;2024-01-27T12:35:48;7.60;99.90
39067;DHT22;24821;51.988;6.020;2024-01-27T12:38:14;7.60;99.90
39067;DHT22;24821;51.988;6.020;2024-01-27T12:40:39;7.70;99.90
39067;DHT22;24821;51.988;6.020;2024-01-27T12:43:05;7.70;99.90
39067;DHT22;24821;51.988;6.020;2024-01-27T12:45:31;7.70;99.90
39067;DHT22;24821;51.988;6.020;2024-01-27T12:47:58;7.70;99.90
39067;DHT22;24821;51.988;6.020;2024-01-27T12:50:24;7.80;99.90
39067;DHT22;24821;51.988;6.020;2024-01-27T12:52:50;7.80;99.90
39067;DHT22;24821;51.988;6.020;2024-01-27T12:55:15;7.80;99.90
39067;DHT22;24821;51.988;6.020;2024-01-27T12:57:41;7.90;99.90
39067;DHT22;24821;51.988;6.020;2024-01-27T13:00:07;7.90;99.90
39067;DHT22;24821;51.988;6.020;2024-01-27T13:02:36;7.90;99.90
39067;DHT22;24821;51.988;6.020;2024-01-27T13:05:02;7.90;99.90
39067;DHT22;24821;51.988;6.020;2024-01-27T13:07:28;8.00;99.90
39067;DHT22;24821;51.988;6.020;2024-01-27T13:09:53;8.00;99.90
39067;DHT22;24821;51.988;6.020;2024-01-27T13:12:19;8.10;99.90
39067;DHT22;24821;51.988;6.020;2024-01-27T13:14:44;8.00;99.90
39067;DHT22;24821;51.988;6.020;2024-01-27T13:17:09;8.10;99.90
39067;DHT22;24821;51.988;6.020;2024-01-27T13:19:35;8.10;99.90
39067;DHT22;24821;51.988;6.020;2024-01-27T13:22:01;8.10;99.90
39067;DHT22;24821;51.988;6.020;2024-01-27T13:24:26;8.10;99.90
39067;DHT22;24821;51.988;6.020;2024-01-27T13:26:52;8.10;99.90
39067;DHT22;24821;51.988;6.020;2024-01-27T13:29:17;8.10;99.90
39067;DHT22;24821;51.988;6.020;2024-01-27T13:31:43;8.10;99.90
39067;DHT22;24821;51.988;6.020;2024-01-27T13:34:08;8.00;99.90
39067;DHT22;24821;51.988;6.020;2024-01-27T13:36:35;8.00;99.90
39067;DHT22;24821;51.988;6.020;2024-01-27T13:39:00;8.00;99.90
39067;DHT22;24821;51.988;6.020;2024-01-27T13:41:26;8.00;99.90
39067;DHT22;24821;51.988;6.020;2024-01-27T13:43:51;8.00;99.90
39067;DHT22;24821;51.988;6.020;2024-01-27T13:46:16;8.00;99.90
39067;DHT22;24821;51.988;6.020;2024-01-27T13:48:42;8.00;99.90
39067;DHT22;24821;51.988;6.020;2024-01-27T13:51:08;8.00;99.90
39067;DHT22;24821;51.988;6.020;2024-01-27T13:53:34;7.90;99.90
39067;DHT22;24821;51.988;6.020;2024-01-27T13:55:59;7.90;99.90
39067;DHT22;24821;51.988;6.020;2024-01-27T13:58:25;8.00;99.90
39067;DHT22;24821;51.988;6.020;2024-01-27T14:00:51;7.90;99.90
39067;DHT22;24821;51.988;6.020;2024-01-27T14:03:17;8.00;99.90
39067;DHT22;24821;51.988;6.020;2024-01-27T14:05:42;7.90;99.90
39067;DHT22;24821;51.988;6.020;2024-01-27T14:08:08;7.90;99.90
39067;DHT22;24821;51.988;6.020;2024-01-27T14:10:35;7.90;99.90
39067;DHT22;24821;51.988;6.020;2024-01-27T14:13:01;7.90;99.90
39067;DHT22;24821;51.988;6.020;2024-01-27T14:15:30;7.90;99.90
39067;DHT22;24821;51.988;6.020;2024-01-27T14:17:55;7.90;99.90
39067;DHT22;24821;51.988;6.020;2024-01-27T14:20:20;7.90;99.90
39067;DHT22;24821;51.988;6.020;2024-01-27T14:22:46;7.90;99.90
39067;DHT22;24821;51.988;6.020;2024-01-27T14:25:12;7.90;99.90
39067;DHT22;24821;51.988;6.020;2024-01-27T14:27:37;7.90;99.90
39067;DHT22;24821;51.988;6.020;2024-01-27T14:30:03;7.90;99.90
39067;DHT22;24821;51.988;6.020;2024-01-27T14:32:28;7.90;99.90
39067;DHT22;24821;51.988;6.020;2024-01-27T14:34:54;7.90;99.90
39067;DHT22;24821;51.988;6.020;2024-01-27T14:37:19;7.90;99.90
39067;DHT22;24821;51.988;6.020;2024-01-27T14:39:48;7.90;99.90
39067;DHT22;24821;51.988;6.020;2024-01-27T14:42:13;7.90;99.90
39067;DHT22;24821;51.988;6.020;2024-01-27T14:44:39;8.00;99.90
39067;DHT22;24821;51.988;6.020;2024-01-27T14:47:05;7.90;99.90
39067;DHT22;24821;51.988;6.020;2024-01-27T14:49:32;7.90;99.90
39067;DHT22;24821;51.988;6.020;2024-01-27T14:51:57;7.90;99.90
39067;DHT22;24821;51.988;6.020;2024-01-27T14:54:23;7.90;99.90
39067;DHT22;24821;51.988;6.020;2024-01-27T14:56:48;7.90;99.90
39067;DHT22;24821;51.988;6.020;2024-01-27T14:59:13;7.80;99.90
39067;DHT22;24821;51.988;6.020;2024-01-27T15:01:39;8.00;99.90
39067;DHT22;24821;51.988;6.020;2024-01-27T15:04:05;7.80;99.90
39067;DHT22;24821;51.988;6.020;2024-01-27T15:06:30;7.80;99.90
39067;DHT22;24821;51.988;6.020;2024-01-27T15:08:56;7.70;99.90
39067;DHT22;24821;51.988;6.020;2024-01-27T15:11:22;7.70;99.90
39067;DHT22;24821;51.988;6.020;2024-01-27T15:13:47;7.60;99.90
39067;DHT22;24821;51.988;6.020;2024-01-27T15:16:13;7.60;99.90
39067;DHT22;24821;51.988;6.020;2024-01-27T15:18:38;7.60;99.90
39067;DHT22;24821;51.988;6.020;2024-01-27T15:21:08;7.50;99.90
39067;DHT22;24821;51.988;6.020;2024-01-27T15:23:34;7.50;99.90
39067;DHT22;24821;51.988;6.020;2024-01-27T15:26:00;7.40;99.90
39067;DHT22;24821;51.988;6.020;2024-01-27T15:28:27;7.40;99.90
39067;DHT22;24821;51.988;6.020;2024-01-27T15:30:52;7.30;99.90
39067;DHT22;24821;51.988;6.020;2024-01-27T15:33:18;7.30;99.90
39067;DHT22;24821;51.988;6.020;2024-01-27T15:35:43;7.30;99.90
39067;DHT22;24821;51.988;6.020;2024-01-27T15:38:08;7.30;99.90